Погода Герменджикна неделю

Эгейский регион, Турция

03 - 09 сентября
  • 03сентября
    Сегодня
    +22°
    +38°
    Ясно и безоблачно
    ВремяПогодаТемператураВлажностьДавлениеВетер, м/сВероятность осадков
    00:00Ясно и безоблачно+27°C38 %752 мм0.6 м/с2 %
    03:00Ясно и безоблачно+25°C39 %752 мм0.5 м/с2 %
    06:00Ясно и безоблачно+24°C42 %751 мм0.5 м/с2 %
    09:00Ясно и безоблачно+27°C36 %751 мм0.8 м/с2 %
    12:00Ясно и безоблачно+33°C26 %751 мм1.0 м/с2 %
    15:00Ясно и безоблачно+38°C22 %750 мм1.6 м/с2 %
    18:00Ясно и безоблачно+35°C28 %749 мм1.6 м/с2 %
    21:00Ясно и безоблачно+29°C36 %750 мм1.0 м/с2 %
  • 04сентября
    Пятница
    +22°
    +37°
    Ясно и безоблачно
    ВремяПогодаТемператураВлажностьДавлениеВетер, м/сВероятность осадков
    00:00Ясно и безоблачно+27°C41 %751 мм0.5 м/с2 %
    03:00Ясно и безоблачно+24°C48 %750 мм0.5 м/с2 %
    06:00Ясно и безоблачно+23°C56 %750 мм0.4 м/с2 %
    09:00Ясно и безоблачно+25°C48 %751 мм0.8 м/с2 %
    12:00Ясно и безоблачно+31°C36 %751 мм1.0 м/с2 %
    15:00Ясно и безоблачно+36°C28 %750 мм1.5 м/с3 %
    18:00Ясно и безоблачно+34°C33 %750 мм1.6 м/с13 %
    21:00Ясно и безоблачно+29°C44 %752 мм1.0 м/с8 %
  • 05сентября
    Суббота
    +23°
    +37°
    Ясно и безоблачно
    ВремяПогодаТемператураВлажностьДавлениеВетер, м/сВероятность осадков
    00:00Ясно и безоблачно+26°C52 %752 мм0.5 м/с3 %
    03:00Ясно и безоблачно+24°C59 %752 мм0.4 м/с2 %
    06:00Ясно и безоблачно+23°C59 %752 мм0.4 м/с2 %
    09:00Ясно и безоблачно+26°C49 %753 мм0.8 м/с2 %
    12:00Ясно и безоблачно+32°C34 %754 мм1.0 м/с2 %
    15:00Ясно и безоблачно+37°C27 %753 мм1.5 м/с2 %
    18:00Ясно и безоблачно+35°C31 %753 мм1.5 м/с6 %
    21:00Ясно и безоблачно+29°C39 %754 мм1.1 м/с2 %
  • 06сентября
    Воскресенье
    +23°
    +39°
    Ясно и безоблачно
    ВремяПогодаТемператураВлажностьДавлениеВетер, м/сВероятность осадков
    00:00Ясно и безоблачно+27°C44 %755 мм0.5 м/с2 %
    03:00Ясно и безоблачно+24°C47 %754 мм0.4 м/с2 %
    06:00Ясно и безоблачно+23°C50 %754 мм0.4 м/с2 %
    09:00Ясно и безоблачно+27°C43 %755 мм0.7 м/с2 %
    12:00Ясно и безоблачно+33°C31 %755 мм1.0 м/с2 %
    15:00Ясно и безоблачно+38°C24 %754 мм1.6 м/с2 %
    18:00Ясно и безоблачно+37°C26 %753 мм1.5 м/с2 %
    21:00Ясно и безоблачно+31°C29 %755 мм1.1 м/с2 %
  • 07сентября
    Понедельник
    +22°
    +39°
    Ясно и безоблачно
    ВремяПогодаТемператураВлажностьДавлениеВетер, м/сВероятность осадков
    00:00Ясно и безоблачно+28°C34 %755 мм0.6 м/с2 %
    03:00Ясно и безоблачно+25°C36 %755 мм0.5 м/с2 %
    06:00Ясно и безоблачно+24°C40 %755 мм0.5 м/с2 %
    09:00Ясно и безоблачно+28°C37 %756 мм0.8 м/с2 %
    12:00Ясно и безоблачно+35°C25 %756 мм1.3 м/с2 %
    15:00Ясно и безоблачно+38°C24 %754 мм1.5 м/с2 %
    18:00Ясно и безоблачно+36°C26 %754 мм1.6 м/с2 %
    21:00Ясно и безоблачно+30°C34 %754 мм1.1 м/с2 %
  • 08сентября
    Вторник
    +19°
    +37°
    Ясно и безоблачно
    ВремяПогодаТемператураВлажностьДавлениеВетер, м/сВероятность осадков
    03:00Ясно и безоблачно+24°C45 %753 мм0.5 м/с2 %
    09:00Ясно и безоблачно+26°C40 %753 мм0.8 м/с2 %
    15:00Ясно и безоблачно+36°C24 %751 мм1.5 м/с2 %
    21:00Ясно и безоблачно+28°C33 %751 мм1.0 м/с2 %
  • 09сентября
    Среда
    +19°
    +37°
    Ясно и безоблачно
    ВремяПогодаТемператураВлажностьДавлениеВетер, м/сВероятность осадков
    03:00Ясно и безоблачно+23°C43 %751 мм0.4 м/с2 %
    09:00Ясно и безоблачно+25°C50 %752 мм1.3 м/с2 %
    15:00Ясно и безоблачно+36°C24 %751 мм2.4 м/с2 %
    21:00Ясно и безоблачно+28°C43 %752 мм2.1 м/с2 %
Мы используем cookies
Соглашаюсь